sensor_id;sensor_type;location;lat;lon;timestamp;pressure;altitude;pressure_sealevel;temperature;humidity
60479;BME280;46321;48.398;11.754;2023-04-05T00:01:12;97052.38;;;-0.72;61.96
60479;BME280;46321;48.398;11.754;2023-04-05T00:03:38;97041.97;;;-0.72;61.82
60479;BME280;46321;48.398;11.754;2023-04-05T00:06:04;97040.03;;;-0.68;62.12
60479;BME280;46321;48.398;11.754;2023-04-05T00:08:30;97038.09;;;-0.64;61.58
60479;BME280;46321;48.398;11.754;2023-04-05T00:10:55;97037.16;;;-0.63;61.61
60479;BME280;46321;48.398;11.754;2023-04-05T00:13:21;97039.56;;;-0.60;61.98
60479;BME280;46321;48.398;11.754;2023-04-05T00:15:47;97040.13;;;-0.55;61.29
60479;BME280;46321;48.398;11.754;2023-04-05T00:18:12;97029.75;;;-0.55;61.84
60479;BME280;46321;48.398;11.754;2023-04-05T00:20:43;97031.31;;;-0.52;61.57
60479;BME280;46321;48.398;11.754;2023-04-05T00:23:08;97026.75;;;-0.49;61.80
60479;BME280;46321;48.398;11.754;2023-04-05T00:25:34;97030.38;;;-0.51;62.28
60479;BME280;46321;48.398;11.754;2023-04-05T00:28:00;97025.38;;;-0.54;62.15
60479;BME280;46321;48.398;11.754;2023-04-05T00:30:25;97022.56;;;-0.51;62.50
60479;BME280;46321;48.398;11.754;2023-04-05T00:32:53;97024.72;;;-0.43;62.36
60479;BME280;46321;48.398;11.754;2023-04-05T00:35:19;97023.72;;;-0.41;61.94
60479;BME280;46321;48.398;11.754;2023-04-05T00:37:44;97022.88;;;-0.41;62.46
60479;BME280;46321;48.398;11.754;2023-04-05T00:40:09;97020.91;;;-0.38;62.66
60479;BME280;46321;48.398;11.754;2023-04-05T00:42:35;97019.16;;;-0.37;62.44
60479;BME280;46321;48.398;11.754;2023-04-05T00:45:00;97014.88;;;-0.38;62.02
60479;BME280;46321;48.398;11.754;2023-04-05T00:47:25;97019.78;;;-0.33;62.16
60479;BME280;46321;48.398;11.754;2023-04-05T00:49:51;97012.81;;;-0.33;61.81
60479;BME280;46321;48.398;11.754;2023-04-05T00:52:17;97020.34;;;-0.28;61.62
60479;BME280;46321;48.398;11.754;2023-04-05T00:54:43;97016.16;;;-0.31;61.98
60479;BME280;46321;48.398;11.754;2023-04-05T00:57:09;97011.91;;;-0.32;62.18
60479;BME280;46321;48.398;11.754;2023-04-05T00:59:35;97015.25;;;-0.30;62.19
60479;BME280;46321;48.398;11.754;2023-04-05T01:02:17;97010.69;;;-0.26;62.46
60479;BME280;46321;48.398;11.754;2023-04-05T01:04:46;97007.16;;;-0.25;62.76
60479;BME280;46321;48.398;11.754;2023-04-05T01:10:08;97002.25;;;-0.30;61.87
60479;BME280;46321;48.398;11.754;2023-04-05T01:12:36;97007.34;;;-0.28;61.52
60479;BME280;46321;48.398;11.754;2023-04-05T01:15:02;97000.47;;;-0.29;61.60
60479;BME280;46321;48.398;11.754;2023-04-05T01:17:29;96998.34;;;-0.37;62.02
60479;BME280;46321;48.398;11.754;2023-04-05T01:20:02;96999.81;;;-0.33;61.59
60479;BME280;46321;48.398;11.754;2023-04-05T01:23:27;96998.34;;;-0.37;61.11
60479;BME280;46321;48.398;11.754;2023-04-05T01:31:31;96988.41;;;-0.60;60.03
60479;BME280;46321;48.398;11.754;2023-04-05T01:34:30;96991.84;;;-0.59;60.19
60479;BME280;46321;48.398;11.754;2023-04-05T01:37:05;96982.56;;;-0.63;59.84
60479;BME280;46321;48.398;11.754;2023-04-05T01:39:34;96988.13;;;-0.70;59.09
60479;BME280;46321;48.398;11.754;2023-04-05T01:42:00;96976.97;;;-0.72;58.79
60479;BME280;46321;48.398;11.754;2023-04-05T01:44:26;96973.44;;;-0.85;59.23
60479;BME280;46321;48.398;11.754;2023-04-05T01:46:52;96978.66;;;-0.85;58.67
60479;BME280;46321;48.398;11.754;2023-04-05T01:49:17;96977.34;;;-0.93;58.91
60479;BME280;46321;48.398;11.754;2023-04-05T01:51:42;96970.44;;;-0.94;58.91
60479;BME280;46321;48.398;11.754;2023-04-05T01:54:08;96974.06;;;-0.96;58.61
60479;BME280;46321;48.398;11.754;2023-04-05T01:56:33;96973.59;;;-1.03;58.38
60479;BME280;46321;48.398;11.754;2023-04-05T01:58:59;96965.41;;;-1.11;58.14
60479;BME280;46321;48.398;11.754;2023-04-05T02:01:24;96974.53;;;-1.04;58.62
60479;BME280;46321;48.398;11.754;2023-04-05T02:03:49;96961.16;;;-1.12;58.21
60479;BME280;46321;48.398;11.754;2023-04-05T02:06:15;96965.28;;;-1.24;58.42
60479;BME280;46321;48.398;11.754;2023-04-05T02:08:40;96967.72;;;-1.21;58.63
60479;BME280;46321;48.398;11.754;2023-04-05T02:11:05;96954.00;;;-1.23;58.24
60479;BME280;46321;48.398;11.754;2023-04-05T02:13:31;96962.53;;;-1.21;58.65
60479;BME280;46321;48.398;11.754;2023-04-05T02:15:56;96962.53;;;-1.21;58.56
60479;BME280;46321;48.398;11.754;2023-04-05T02:18:21;96966.13;;;-1.24;58.45
60479;BME280;46321;48.398;11.754;2023-04-05T02:20:50;96965.19;;;-1.23;58.35
60479;BME280;46321;48.398;11.754;2023-04-05T02:23:18;96962.69;;;-1.24;58.39
60479;BME280;46321;48.398;11.754;2023-04-05T02:25:43;96947.75;;;-1.21;58.33
60479;BME280;46321;48.398;11.754;2023-04-05T02:28:08;96946.94;;;-1.21;58.17
60479;BME280;46321;48.398;11.754;2023-04-05T02:30:34;96941.81;;;-1.23;58.34
60479;BME280;46321;48.398;11.754;2023-04-05T02:32:59;96942.28;;;-1.31;58.45
60479;BME280;46321;48.398;11.754;2023-04-05T02:35:26;96954.31;;;-1.30;58.50
60479;BME280;46321;48.398;11.754;2023-04-05T02:37:51;96948.47;;;-1.33;58.99
60479;BME280;46321;48.398;11.754;2023-04-05T02:40:16;96946.91;;;-1.36;58.78
60479;BME280;46321;48.398;11.754;2023-04-05T02:42:41;96938.09;;;-1.33;59.13
60479;BME280;46321;48.398;11.754;2023-04-05T02:45:07;96944.78;;;-1.29;58.51
60479;BME280;46321;48.398;11.754;2023-04-05T02:47:33;96946.09;;;-1.22;58.64
60479;BME280;46321;48.398;11.754;2023-04-05T02:49:58;96938.56;;;-1.27;58.40
60479;BME280;46321;48.398;11.754;2023-04-05T02:52:23;96938.56;;;-1.27;58.59
60479;BME280;46321;48.398;11.754;2023-04-05T02:54:49;96942.16;;;-1.44;59.16
60479;BME280;46321;48.398;11.754;2023-04-05T02:57:15;96946.25;;;-1.40;59.25
60479;BME280;46321;48.398;11.754;2023-04-05T02:59:40;96934.75;;;-1.35;59.01
60479;BME280;46321;48.398;11.754;2023-04-05T03:02:08;96934.75;;;-1.35;58.97
60479;BME280;46321;48.398;11.754;2023-04-05T03:04:33;96928.63;;;-1.34;58.80
60479;BME280;46321;48.398;11.754;2023-04-05T03:07:03;96939.09;;;-1.36;59.09
60479;BME280;46321;48.398;11.754;2023-04-05T03:09:29;96931.31;;;-1.36;59.53
60479;BME280;46321;48.398;11.754;2023-04-05T03:12:01;96924.53;;;-1.39;59.43
60479;BME280;46321;48.398;11.754;2023-04-05T03:14:30;96929.06;;;-1.42;59.70
60479;BME280;46321;48.398;11.754;2023-04-05T03:16:56;96933.00;;;-1.35;59.99
60479;BME280;46321;48.398;11.754;2023-04-05T03:19:22;96933.47;;;-1.28;59.92
60479;BME280;46321;48.398;11.754;2023-04-05T03:21:48;96932.47;;;-1.25;59.51
60479;BME280;46321;48.398;11.754;2023-04-05T03:24:14;96930.69;;;-1.25;59.69
60479;BME280;46321;48.398;11.754;2023-04-05T03:26:41;96933.53;;;-1.30;60.11
60479;BME280;46321;48.398;11.754;2023-04-05T03:29:07;96933.47;;;-1.28;59.74
60479;BME280;46321;48.398;11.754;2023-04-05T03:31:32;96928.34;;;-1.30;60.20
60479;BME280;46321;48.398;11.754;2023-04-05T03:33:57;96933.47;;;-1.28;60.45
60479;BME280;46321;48.398;11.754;2023-04-05T03:36:22;96928.16;;;-1.41;60.65
60479;BME280;46321;48.398;11.754;2023-04-05T03:38:48;96932.03;;;-1.48;61.05
60479;BME280;46321;48.398;11.754;2023-04-05T03:41:15;96926.47;;;-1.42;60.90
60479;BME280;46321;48.398;11.754;2023-04-05T03:43:41;96927.22;;;-1.40;60.82
60479;BME280;46321;48.398;11.754;2023-04-05T03:46:06;96926.13;;;-1.36;60.50
60479;BME280;46321;48.398;11.754;2023-04-05T03:48:31;96930.34;;;-1.50;61.25
60479;BME280;46321;48.398;11.754;2023-04-05T03:50:56;96924.31;;;-1.50;61.20
60479;BME280;46321;48.398;11.754;2023-04-05T03:53:23;96934.66;;;-1.65;61.50
60479;BME280;46321;48.398;11.754;2023-04-05T03:55:49;96941.72;;;-1.83;62.30
60479;BME280;46321;48.398;11.754;2023-04-05T03:58:17;96930.19;;;-1.93;62.50
60479;BME280;46321;48.398;11.754;2023-04-05T04:00:42;96941.44;;;-1.93;62.56
60479;BME280;46321;48.398;11.754;2023-04-05T04:03:07;96936.97;;;-1.91;62.81
60479;BME280;46321;48.398;11.754;2023-04-05T04:05:33;96937.97;;;-1.77;62.26
60479;BME280;46321;48.398;11.754;2023-04-05T04:08:03;96938.59;;;-1.57;62.01
60479;BME280;46321;48.398;11.754;2023-04-05T04:10:29;96935.81;;;-1.54;61.92
60479;BME280;46321;48.398;11.754;2023-04-05T04:12:55;96935.81;;;-1.54;62.33
60479;BME280;46321;48.398;11.754;2023-04-05T04:15:20;96936.84;;;-1.57;61.55
60479;BME280;46321;48.398;11.754;2023-04-05T04:17:45;96932.81;;;-1.63;61.73
60479;BME280;46321;48.398;11.754;2023-04-05T04:20:11;96934.66;;;-1.65;61.94
60479;BME280;46321;48.398;11.754;2023-04-05T04:22:37;96935.25;;;-1.59;61.75
60479;BME280;46321;48.398;11.754;2023-04-05T04:25:08;96933.56;;;-1.61;61.41
60479;BME280;46321;48.398;11.754;2023-04-05T04:27:36;96924.63;;;-1.71;61.73
60479;BME280;46321;48.398;11.754;2023-04-05T04:30:03;96925.75;;;-1.75;62.35
60479;BME280;46321;48.398;11.754;2023-04-05T04:32:29;96933.34;;;-1.72;62.20
60479;BME280;46321;48.398;11.754;2023-04-05T04:35:14;96933.44;;;-1.74;62.11
60479;BME280;46321;48.398;11.754;2023-04-05T04:37:44;96932.78;;;-1.77;62.25
60479;BME280;46321;48.398;11.754;2023-04-05T04:40:15;96920.94;;;-1.67;62.18
60479;BME280;46321;48.398;11.754;2023-04-05T04:42:42;96921.03;;;-1.68;61.98
60479;BME280;46321;48.398;11.754;2023-04-05T04:45:13;96923.97;;;-1.75;62.16
60479;BME280;46321;48.398;11.754;2023-04-05T04:47:45;96939.22;;;-1.68;61.93
60479;BME280;46321;48.398;11.754;2023-04-05T04:50:12;96928.16;;;-1.72;62.27
60479;BME280;46321;48.398;11.754;2023-04-05T04:52:38;96931.09;;;-1.78;62.28
60479;BME280;46321;48.398;11.754;2023-04-05T04:55:07;96929.69;;;-1.84;62.48
60479;BME280;46321;48.398;11.754;2023-04-05T04:57:33;96926.00;;;-1.96;63.66
60479;BME280;46321;48.398;11.754;2023-04-05T04:59:59;96931.78;;;-1.91;63.58
60479;BME280;46321;48.398;11.754;2023-04-05T05:02:25;96924.50;;;-1.84;63.34
60479;BME280;46321;48.398;11.754;2023-04-05T05:04:50;96927.00;;;-1.82;63.14
60479;BME280;46321;48.398;11.754;2023-04-05T05:07:16;96923.56;;;-1.83;63.22
60479;BME280;46321;48.398;11.754;2023-04-05T05:09:42;96930.94;;;-1.75;62.90
60479;BME280;46321;48.398;11.754;2023-04-05T05:12:07;96928.63;;;-1.65;62.66
60479;BME280;46321;48.398;11.754;2023-04-05T05:14:32;96924.94;;;-1.61;62.84
60479;BME280;46321;48.398;11.754;2023-04-05T05:16:57;96925.78;;;-1.61;62.58
60479;BME280;46321;48.398;11.754;2023-04-05T05:19:23;96921.69;;;-1.65;62.85
60479;BME280;46321;48.398;11.754;2023-04-05T05:21:49;96928.75;;;-1.52;62.64
60479;BME280;46321;48.398;11.754;2023-04-05T05:24:14;96925.09;;;-1.48;62.58
60479;BME280;46321;48.398;11.754;2023-04-05T05:26:40;96937.78;;;-1.43;62.27
60479;BME280;46321;48.398;11.754;2023-04-05T05:29:05;96930.13;;;-1.30;62.34
60479;BME280;46321;48.398;11.754;2023-04-05T05:31:30;96935.06;;;-1.25;62.18
60479;BME280;46321;48.398;11.754;2023-04-05T05:33:57;96934.88;;;-1.22;62.13
60479;BME280;46321;48.398;11.754;2023-04-05T05:36:23;96932.69;;;-0.99;61.70
60479;BME280;46321;48.398;11.754;2023-04-05T05:38:49;96932.66;;;-0.85;61.15
60479;BME280;46321;48.398;11.754;2023-04-05T05:41:15;96933.41;;;-0.68;60.80
60479;BME280;46321;48.398;11.754;2023-04-05T05:43:40;96932.47;;;-0.52;60.58
60479;BME280;46321;48.398;11.754;2023-04-05T05:46:05;96936.91;;;-0.40;60.00
60479;BME280;46321;48.398;11.754;2023-04-05T05:48:30;96946.38;;;-0.24;59.16
60479;BME280;46321;48.398;11.754;2023-04-05T05:50:57;96941.63;;;-0.17;59.00
60479;BME280;46321;48.398;11.754;2023-04-05T05:53:25;96946.06;;;-0.05;58.39
60479;BME280;46321;48.398;11.754;2023-04-05T05:55:50;96950.38;;;0.09;58.18
60479;BME280;46321;48.398;11.754;2023-04-05T05:58:16;96953.13;;;0.21;57.83
60479;BME280;46321;48.398;11.754;2023-04-05T06:00:41;96953.97;;;0.21;57.42
60479;BME280;46321;48.398;11.754;2023-04-05T06:03:06;96949.50;;;0.24;57.70
60479;BME280;46321;48.398;11.754;2023-04-05T06:05:32;96956.31;;;0.39;57.00
60479;BME280;46321;48.398;11.754;2023-04-05T06:07:57;96960.34;;;0.58;56.83
60479;BME280;46321;48.398;11.754;2023-04-05T06:10:22;96958.50;;;0.73;55.58
60479;BME280;46321;48.398;11.754;2023-04-05T06:12:49;96953.41;;;0.85;55.15
60479;BME280;46321;48.398;11.754;2023-04-05T06:15:15;96943.59;;;1.01;54.99
60479;BME280;46321;48.398;11.754;2023-04-05T06:17:40;96945.38;;;1.14;54.67
60479;BME280;46321;48.398;11.754;2023-04-05T06:20:08;96943.28;;;1.19;53.73
60479;BME280;46321;48.398;11.754;2023-04-05T06:22:34;96943.59;;;1.14;53.97
60479;BME280;46321;48.398;11.754;2023-04-05T06:25:00;96955.19;;;1.36;53.86
60479;BME280;46321;48.398;11.754;2023-04-05T06:27:25;96954.41;;;1.60;53.10
60479;BME280;46321;48.398;11.754;2023-04-05T06:29:51;96956.47;;;1.68;53.03
60479;BME280;46321;48.398;11.754;2023-04-05T06:32:16;96954.88;;;1.92;52.97
60479;BME280;46321;48.398;11.754;2023-04-05T06:34:41;96943.44;;;2.06;51.89
60479;BME280;46321;48.398;11.754;2023-04-05T06:37:07;96955.59;;;2.19;52.35
60479;BME280;46321;48.398;11.754;2023-04-05T06:39:32;96949.81;;;2.26;51.49
60479;BME280;46321;48.398;11.754;2023-04-05T06:41:57;96949.59;;;2.29;50.58
60479;BME280;46321;48.398;11.754;2023-04-05T06:44:22;96949.72;;;2.53;49.81
60479;BME280;46321;48.398;11.754;2023-04-05T06:46:48;96951.75;;;2.60;48.73
60479;BME280;46321;48.398;11.754;2023-04-05T06:49:13;96945.59;;;2.37;49.16
60479;BME280;46321;48.398;11.754;2023-04-05T06:51:38;96945.69;;;2.60;48.83
60479;BME280;46321;48.398;11.754;2023-04-05T06:54:03;96952.38;;;2.64;48.55
60479;BME280;46321;48.398;11.754;2023-04-05T06:56:29;96945.38;;;2.76;48.73
60479;BME280;46321;48.398;11.754;2023-04-05T06:58:54;96947.19;;;2.87;48.14
60479;BME280;46321;48.398;11.754;2023-04-05T07:01:20;96952.03;;;2.80;47.69
60479;BME280;46321;48.398;11.754;2023-04-05T07:03:45;96942.91;;;2.86;47.31
60479;BME280;46321;48.398;11.754;2023-04-05T07:06:10;96947.69;;;2.92;47.33
60479;BME280;46321;48.398;11.754;2023-04-05T07:08:36;96946.91;;;3.38;47.73
60479;BME280;46321;48.398;11.754;2023-04-05T07:11:01;96948.56;;;3.50;47.72
60479;BME280;46321;48.398;11.754;2023-04-05T07:13:26;96947.72;;;3.73;44.97
60479;BME280;46321;48.398;11.754;2023-04-05T07:15:58;96950.53;;;4.04;45.47
60479;BME280;46321;48.398;11.754;2023-04-05T07:18:24;96941.72;;;4.50;43.91
60479;BME280;46321;48.398;11.754;2023-04-05T07:20:50;96946.44;;;4.56;43.22
60479;BME280;46321;48.398;11.754;2023-04-05T07:23:15;96948.97;;;4.46;43.13
60479;BME280;46321;48.398;11.754;2023-04-05T07:25:42;96948.59;;;4.51;41.96
60479;BME280;46321;48.398;11.754;2023-04-05T07:28:07;96944.72;;;4.66;42.67
60479;BME280;46321;48.398;11.754;2023-04-05T07:30:33;96950.03;;;4.98;42.10
60479;BME280;46321;48.398;11.754;2023-04-05T07:32:58;96945.56;;;5.10;42.02
60479;BME280;46321;48.398;11.754;2023-04-05T07:35:23;96944.84;;;4.65;41.88
60479;BME280;46321;48.398;11.754;2023-04-05T07:37:49;96954.41;;;4.66;41.10
60479;BME280;46321;48.398;11.754;2023-04-05T07:40:14;96936.09;;;4.97;41.27
60479;BME280;46321;48.398;11.754;2023-04-05T07:42:39;96943.19;;;5.69;39.90
60479;BME280;46321;48.398;11.754;2023-04-05T07:45:05;96958.19;;;5.47;39.86
60479;BME280;46321;48.398;11.754;2023-04-05T07:47:33;96946.72;;;5.48;38.25
60479;BME280;46321;48.398;11.754;2023-04-05T07:49:59;96950.59;;;5.86;38.05
60479;BME280;46321;48.398;11.754;2023-04-05T07:52:25;96953.31;;;6.25;37.77
60479;BME280;46321;48.398;11.754;2023-04-05T07:54:50;96948.50;;;6.30;36.52
60479;BME280;46321;48.398;11.754;2023-04-05T07:57:16;96945.47;;;6.65;36.51
60479;BME280;46321;48.398;11.754;2023-04-05T07:59:42;96939.78;;;6.50;37.17
60479;BME280;46321;48.398;11.754;2023-04-05T08:02:08;96946.28;;;6.66;36.26
60479;BME280;46321;48.398;11.754;2023-04-05T08:04:33;96946.91;;;7.27;35.40
60479;BME280;46321;48.398;11.754;2023-04-05T08:06:58;96936.53;;;7.16;34.99
60479;BME280;46321;48.398;11.754;2023-04-05T08:09:23;96942.97;;;7.41;34.61
60479;BME280;46321;48.398;11.754;2023-04-05T08:11:49;96942.38;;;8.51;34.57
60479;BME280;46321;48.398;11.754;2023-04-05T08:14:15;96939.44;;;7.89;33.48
60479;BME280;46321;48.398;11.754;2023-04-05T08:16:42;96936.63;;;8.19;33.03
60479;BME280;46321;48.398;11.754;2023-04-05T08:19:07;96940.88;;;8.85;33.28
60479;BME280;46321;48.398;11.754;2023-04-05T08:21:32;96945.94;;;8.78;32.48
60479;BME280;46321;48.398;11.754;2023-04-05T08:23:58;96935.63;;;9.11;33.23
60479;BME280;46321;48.398;11.754;2023-04-05T08:26:24;96935.97;;;8.35;32.57
60479;BME280;46321;48.398;11.754;2023-04-05T08:28:49;96935.22;;;8.61;31.99
60479;BME280;46321;48.398;11.754;2023-04-05T08:31:15;96931.09;;;9.30;32.74
60479;BME280;46321;48.398;11.754;2023-04-05T08:33:40;96943.16;;;9.06;31.92
60479;BME280;46321;48.398;11.754;2023-04-05T08:36:07;96934.31;;;8.70;31.46
60479;BME280;46321;48.398;11.754;2023-04-05T08:38:33;96944.69;;;7.61;31.83
60479;BME280;46321;48.398;11.754;2023-04-05T08:41:28;96931.50;;;7.89;32.82
60479;BME280;46321;48.398;11.754;2023-04-05T08:43:55;96929.38;;;9.82;32.66
60479;BME280;46321;48.398;11.754;2023-04-05T08:46:22;96926.56;;;11.03;30.22
60479;BME280;46321;48.398;11.754;2023-04-05T08:48:47;96933.47;;;9.42;30.49
60479;BME280;46321;48.398;11.754;2023-04-05T08:51:17;96941.63;;;8.77;29.74
60479;BME280;46321;48.398;11.754;2023-04-05T08:53:42;96927.19;;;9.69;29.16
60479;BME280;46321;48.398;11.754;2023-04-05T08:56:08;96920.81;;;9.54;29.69
60479;BME280;46321;48.398;11.754;2023-04-05T08:58:36;96929.75;;;9.96;29.40
60479;BME280;46321;48.398;11.754;2023-04-05T09:01:03;96930.63;;;10.22;29.83
60479;BME280;46321;48.398;11.754;2023-04-05T09:03:34;96922.97;;;10.95;27.82
60479;BME280;46321;48.398;11.754;2023-04-05T09:06:04;96915.00;;;10.79;29.74
60479;BME280;46321;48.398;11.754;2023-04-05T09:08:31;96931.53;;;9.17;29.68
60479;BME280;46321;48.398;11.754;2023-04-05T09:10:57;96929.38;;;9.82;31.04
60479;BME280;46321;48.398;11.754;2023-04-05T09:13:22;96923.50;;;11.48;30.50
60479;BME280;46321;48.398;11.754;2023-04-05T09:15:47;96919.00;;;12.99;28.49
60479;BME280;46321;48.398;11.754;2023-04-05T09:18:13;96921.16;;;13.34;26.84
60479;BME280;46321;48.398;11.754;2023-04-05T09:20:38;96925.47;;;13.50;25.16
60479;BME280;46321;48.398;11.754;2023-04-05T09:23:03;96923.16;;;12.31;25.52
60479;BME280;46321;48.398;11.754;2023-04-05T09:25:34;96924.31;;;11.97;25.63
60479;BME280;46321;48.398;11.754;2023-04-05T09:28:00;96913.50;;;11.66;26.09
60479;BME280;46321;48.398;11.754;2023-04-05T09:30:29;96913.72;;;13.30;25.73
60479;BME280;46321;48.398;11.754;2023-04-05T09:32:55;96908.09;;;14.15;24.64
60479;BME280;46321;48.398;11.754;2023-04-05T09:35:21;96910.06;;;15.23;24.45
60479;BME280;46321;48.398;11.754;2023-04-05T09:37:52;96908.16;;;14.88;25.64
60479;BME280;46321;48.398;11.754;2023-04-05T09:40:17;96911.75;;;14.36;24.38
60479;BME280;46321;48.398;11.754;2023-04-05T09:42:43;96912.47;;;13.71;23.83
60479;BME280;46321;48.398;11.754;2023-04-05T09:45:13;96913.88;;;13.13;23.97
60479;BME280;46321;48.398;11.754;2023-04-05T09:47:39;96913.31;;;13.02;23.57
60479;BME280;46321;48.398;11.754;2023-04-05T09:52:40;96909.09;;;14.80;24.46
60479;BME280;46321;48.398;11.754;2023-04-05T09:55:06;96909.16;;;15.87;23.27
60479;BME280;46321;48.398;11.754;2023-04-05T09:57:41;96918.84;;;17.53;21.94
60479;BME280;46321;48.398;11.754;2023-04-05T10:00:18;96912.50;;;18.00;21.41
60479;BME280;46321;48.398;11.754;2023-04-05T10:02:44;96910.06;;;16.01;21.73
60479;BME280;46321;48.398;11.754;2023-04-05T10:05:11;96909.81;;;17.40;20.62
60479;BME280;46321;48.398;11.754;2023-04-05T10:07:39;96907.53;;;16.42;21.00
60479;BME280;46321;48.398;11.754;2023-04-05T10:10:05;96905.31;;;15.54;21.27
60479;BME280;46321;48.398;11.754;2023-04-05T10:12:31;96907.81;;;14.10;22.48
60479;BME280;46321;48.398;11.754;2023-04-05T10:14:57;96905.59;;;14.14;24.00
60479;BME280;46321;48.398;11.754;2023-04-05T10:17:23;96901.63;;;15.55;24.01
60479;BME280;46321;48.398;11.754;2023-04-05T10:22:22;96900.88;;;18.26;21.69
60479;BME280;46321;48.398;11.754;2023-04-05T10:24:55;96894.56;;;18.79;19.08
60479;BME280;46321;48.398;11.754;2023-04-05T10:27:38;96893.34;;;17.43;19.58
60479;BME280;46321;48.398;11.754;2023-04-05T10:30:07;96899.66;;;15.71;20.92
60479;BME280;46321;48.398;11.754;2023-04-05T10:32:56;96900.19;;;14.44;22.17
60479;BME280;46321;48.398;11.754;2023-04-05T10:38:26;96891.56;;;13.68;23.41
60479;BME280;46321;48.398;11.754;2023-04-05T10:41:09;96895.94;;;13.76;23.68
60479;BME280;46321;48.398;11.754;2023-04-05T10:43:36;96892.28;;;16.15;22.60
60479;BME280;46321;48.398;11.754;2023-04-05T10:46:03;96885.97;;;16.57;20.69
60479;BME280;46321;48.398;11.754;2023-04-05T10:51:01;96879.09;;;18.48;19.25
60479;BME280;46321;48.398;11.754;2023-04-05T10:53:29;96877.63;;;19.04;18.25
60479;BME280;46321;48.398;11.754;2023-04-05T10:55:56;96879.44;;;20.66;17.48
60479;BME280;46321;48.398;11.754;2023-04-05T10:58:22;96871.50;;;22.38;15.28
60479;BME280;46321;48.398;11.754;2023-04-05T11:00:49;96867.84;;;23.13;15.25
60479;BME280;46321;48.398;11.754;2023-04-05T11:03:40;96864.78;;;21.16;15.43
60479;BME280;46321;48.398;11.754;2023-04-05T11:08:43;96862.00;;;21.65;15.97
60479;BME280;46321;48.398;11.754;2023-04-05T11:11:12;96865.34;;;20.94;16.95
60479;BME280;46321;48.398;11.754;2023-04-05T11:13:49;96853.91;;;21.77;16.99
60479;BME280;46321;48.398;11.754;2023-04-05T11:16:15;96858.31;;;21.42;16.66
60479;BME280;46321;48.398;11.754;2023-04-05T11:18:48;96853.34;;;22.33;17.84
60479;BME280;46321;48.398;11.754;2023-04-05T11:21:24;96862.44;;;21.98;15.76
60479;BME280;46321;48.398;11.754;2023-04-05T11:24:04;96849.56;;;20.00;17.66
60479;BME280;46321;48.398;11.754;2023-04-05T11:29:04;96859.06;;;17.72;20.81
60479;BME280;46321;48.398;11.754;2023-04-05T11:31:30;96851.63;;;17.22;21.38
60479;BME280;46321;48.398;11.754;2023-04-05T11:33:56;96859.44;;;16.76;21.81
60479;BME280;46321;48.398;11.754;2023-04-05T11:42:25;96856.53;;;13.19;23.99
60479;BME280;46321;48.398;11.754;2023-04-05T11:44:44;96862.59;;;11.31;24.93
60479;BME280;46321;48.398;11.754;2023-04-05T11:47:11;96857.19;;;11.56;25.52
60479;BME280;46321;48.398;11.754;2023-04-05T11:49:37;96857.31;;;11.31;26.61
60479;BME280;46321;48.398;11.754;2023-04-05T11:52:32;96858.50;;;11.20;26.38
60479;BME280;46321;48.398;11.754;2023-04-05T11:54:57;96854.66;;;11.31;27.57
60479;BME280;46321;48.398;11.754;2023-04-05T11:57:23;96862.97;;;11.19;28.04
60479;BME280;46321;48.398;11.754;2023-04-05T11:59:49;96856.41;;;10.31;29.28
60479;BME280;46321;48.398;11.754;2023-04-05T12:02:16;96858.44;;;10.55;28.45
60479;BME280;46321;48.398;11.754;2023-04-05T12:04:41;96845.53;;;10.51;28.49
60479;BME280;46321;48.398;11.754;2023-04-05T12:09:32;96851.44;;;10.20;28.64
60479;BME280;46321;48.398;11.754;2023-04-05T12:11:57;96845.69;;;9.56;30.86
60479;BME280;46321;48.398;11.754;2023-04-05T12:14:22;96847.06;;;8.54;32.14
60479;BME280;46321;48.398;11.754;2023-04-05T12:16:48;96832.09;;;8.81;29.76
60479;BME280;46321;48.398;11.754;2023-04-05T12:19:15;96842.09;;;9.22;31.62
60479;BME280;46321;48.398;11.754;2023-04-05T12:21:40;96835.06;;;9.48;31.22
60479;BME280;46321;48.398;11.754;2023-04-05T12:24:06;96844.97;;;9.46;30.20
60479;BME280;46321;48.398;11.754;2023-04-05T12:26:33;96839.09;;;8.90;29.59
60479;BME280;46321;48.398;11.754;2023-04-05T12:29:02;96841.63;;;8.74;30.18
60479;BME280;46321;48.398;11.754;2023-04-05T12:31:44;96838.81;;;8.93;31.80
60479;BME280;46321;48.398;11.754;2023-04-05T12:34:12;96832.66;;;9.20;31.98
60479;BME280;46321;48.398;11.754;2023-04-05T12:36:38;96827.31;;;9.55;32.24
60479;BME280;46321;48.398;11.754;2023-04-05T12:39:08;96831.31;;;9.59;30.33
60479;BME280;46321;48.398;11.754;2023-04-05T12:41:34;96835.78;;;9.58;29.38
60479;BME280;46321;48.398;11.754;2023-04-05T12:44:04;96821.91;;;9.65;29.86
60479;BME280;46321;48.398;11.754;2023-04-05T12:46:44;96838.81;;;9.80;30.91
60479;BME280;46321;48.398;11.754;2023-04-05T12:49:15;96832.50;;;9.65;29.88
60479;BME280;46321;48.398;11.754;2023-04-05T12:51:45;96822.22;;;9.61;30.26
60479;BME280;46321;48.398;11.754;2023-04-05T12:54:18;96823.34;;;9.50;30.58
60479;BME280;46321;48.398;11.754;2023-04-05T12:56:45;96822.34;;;9.43;29.88
60479;BME280;46321;48.398;11.754;2023-04-05T12:59:13;96815.72;;;9.39;28.64
60479;BME280;46321;48.398;11.754;2023-04-05T13:01:38;96818.13;;;9.24;28.71
60479;BME280;46321;48.398;11.754;2023-04-05T13:04:04;96805.69;;;9.43;29.29
60479;BME280;46321;48.398;11.754;2023-04-05T13:06:30;96811.06;;;9.33;28.52
60479;BME280;46321;48.398;11.754;2023-04-05T13:08:58;96813.34;;;9.19;29.26
60479;BME280;46321;48.398;11.754;2023-04-05T13:11:23;96809.19;;;8.36;31.58
60479;BME280;46321;48.398;11.754;2023-04-05T13:13:49;96808.56;;;8.61;31.10
60479;BME280;46321;48.398;11.754;2023-04-05T13:16:14;96797.25;;;9.04;32.13
60479;BME280;46321;48.398;11.754;2023-04-05T13:18:40;96806.16;;;9.03;31.67
60479;BME280;46321;48.398;11.754;2023-04-05T13:21:06;96796.72;;;9.35;32.86
60479;BME280;46321;48.398;11.754;2023-04-05T13:23:33;96788.59;;;8.58;32.76
60479;BME280;46321;48.398;11.754;2023-04-05T13:25:59;96805.28;;;8.94;32.56